Time;durP1;ratioP1;P1;durP2;ratioP2;P2;SDS_P1;SDS_P2;PMS_P1;PMS_P2;Temp;Humidity;BMP_temperature;BMP_pressure;BME280_temperature;BME280_humidity;BME280_pressure;Samples;Min_cycle;Max_cycle;Signal;HPM_P1;HPM_P2
2023/03/24 00:01:42;;;;;;;10.47;5.60;;;;;;;;;;5008183;28;20194;-78
2023/03/24 00:04:09;;;;;;;10.77;5.60;;;;;;;;;;5023659;28;20273;-78
2023/03/24 00:06:35;;;;;;;10.40;6.10;;;;;;;;;;5019115;28;20214;-77
2023/03/24 00:09:03;;;;;;;13.53;6.97;;;;;;;;;;5018752;28;20202;-77
2023/03/24 00:11:29;;;;;;;13.97;7.20;;;;;;;;;;5021649;28;20202;-78
2023/03/24 00:13:57;;;;;;;8.80;5.53;;;;;;;;;;5006936;28;20245;-78
2023/03/24 00:16:23;;;;;;;11.10;5.80;;;;;;;;;;5004758;28;20219;-78
2023/03/24 00:18:51;;;;;;;9.53;5.10;;;;;;;;;;5025834;28;20197;-78
2023/03/24 00:21:20;;;;;;;9.93;5.00;;;;;;;;;;4991143;28;20182;-78
2023/03/24 00:23:48;;;;;;;8.27;4.90;;;;;;;;;;5022151;28;20273;-78
2023/03/24 00:26:15;;;;;;;9.40;5.50;;;;;;;;;;5018476;28;21150;-78
2023/03/24 00:28:46;;;;;;;7.60;4.77;;;;;;;;;;5006252;28;20191;-78
2023/03/24 00:31:13;;;;;;;6.90;4.47;;;;;;;;;;5023379;28;20186;-78
2023/03/24 00:33:40;;;;;;;7.60;4.70;;;;;;;;;;5019751;28;20241;-78
2023/03/24 00:36:10;;;;;;;11.70;6.50;;;;;;;;;;5001920;28;20182;-78
2023/03/24 00:38:37;;;;;;;8.57;5.30;;;;;;;;;;5001865;28;20182;-77
2023/03/24 00:41:04;;;;;;;6.00;4.37;;;;;;;;;;5018328;28;20209;-78
2023/03/24 00:43:31;;;;;;;7.13;4.43;;;;;;;;;;5017925;28;20188;-78
2023/03/24 00:46:00;;;;;;;5.43;3.60;;;;;;;;;;5018844;28;20591;-78
2023/03/24 00:48:27;;;;;;;5.50;3.43;;;;;;;;;;5007312;28;20187;-78
2023/03/24 00:50:54;;;;;;;5.27;3.70;;;;;;;;;;5020421;28;20222;-77
2023/03/24 00:53:28;;;;;;;7.47;4.47;;;;;;;;;;5000790;28;20210;-78
2023/03/24 00:55:55;;;;;;;9.07;5.17;;;;;;;;;;5018097;28;20170;-78
2023/03/24 00:58:21;;;;;;;10.07;6.00;;;;;;;;;;5007431;28;20233;-79
2023/03/24 01:00:52;;;;;;;8.83;4.80;;;;;;;;;;5004441;28;20203;-78
2023/03/24 01:03:20;;;;;;;8.87;5.00;;;;;;;;;;5024901;28;20756;-78
2023/03/24 01:05:48;;;;;;;9.13;4.70;;;;;;;;;;4991196;28;20187;-78
2023/03/24 01:08:19;;;;;;;6.33;4.20;;;;;;;;;;4988033;28;20202;-78
2023/03/24 01:10:52;;;;;;;8.37;4.73;;;;;;;;;;5024459;28;20293;-78
2023/03/24 01:13:20;;;;;;;7.17;4.50;;;;;;;;;;5005171;28;20198;-78
2023/03/24 01:15:46;;;;;;;5.17;3.90;;;;;;;;;;5018948;28;20286;-78
2023/03/24 01:18:13;;;;;;;6.67;4.27;;;;;;;;;;5000877;28;20672;-78
2023/03/24 01:20:40;;;;;;;8.83;4.57;;;;;;;;;;5022452;28;20199;-78
2023/03/24 01:23:07;;;;;;;5.97;3.60;;;;;;;;;;4991325;28;20179;-78
2023/03/24 01:25:35;;;;;;;3.47;3.10;;;;;;;;;;5019686;28;20256;-78
2023/03/24 01:28:02;;;;;;;3.73;2.90;;;;;;;;;;5022053;28;20183;-78
2023/03/24 01:30:29;;;;;;;4.00;2.87;;;;;;;;;;5026290;28;20727;-78
2023/03/24 01:32:55;;;;;;;4.30;2.80;;;;;;;;;;5020652;28;20210;-78
2023/03/24 01:35:24;;;;;;;3.10;2.80;;;;;;;;;;5021980;28;20186;-78
2023/03/24 01:37:51;;;;;;;4.10;2.80;;;;;;;;;;4979801;28;20195;-77
2023/03/24 01:40:22;;;;;;;3.00;2.60;;;;;;;;;;5003813;28;20207;-78
2023/03/24 01:42:49;;;;;;;3.23;2.50;;;;;;;;;;5004430;28;20274;-78
2023/03/24 01:45:34;;;;;;;3.17;2.70;;;;;;;;;;5022191;28;20202;-76
2023/03/24 01:48:01;;;;;;;2.90;2.53;;;;;;;;;;5019732;28;20569;-78
2023/03/24 01:50:28;;;;;;;4.63;3.13;;;;;;;;;;5020613;28;20203;-78
2023/03/24 01:52:55;;;;;;;4.97;3.20;;;;;;;;;;5015057;28;20921;-78
2023/03/24 01:55:22;;;;;;;7.13;2.97;;;;;;;;;;5005429;28;20170;-77
2023/03/24 01:57:53;;;;;;;6.53;3.50;;;;;;;;;;4999569;28;20210;-78
2023/03/24 02:00:21;;;;;;;4.27;3.17;;;;;;;;;;5011451;28;20842;-78
2023/03/24 02:03:23;;;;;;;3.77;2.80;;;;;;;;;;4968604;28;20235;-77
2023/03/24 02:05:56;;;;;;;4.23;2.80;;;;;;;;;;5000619;28;20951;-75
2023/03/24 02:08:31;;;;;;;2.60;2.40;;;;;;;;;;5008181;28;20223;-78
2023/03/24 02:10:59;;;;;;;3.13;2.57;;;;;;;;;;5008391;28;20226;-76
2023/03/24 02:13:32;;;;;;;6.00;2.80;;;;;;;;;;5006966;28;20202;-78
2023/03/24 02:16:18;;;;;;;5.90;3.07;;;;;;;;;;4994411;28;20190;-76
2023/03/24 02:18:48;;;;;;;4.80;3.20;;;;;;;;;;5013167;28;20179;-78
2023/03/24 02:21:17;;;;;;;5.13;2.80;;;;;;;;;;4989113;28;20229;-76
2023/03/24 02:23:56;;;;;;;4.27;3.13;;;;;;;;;;5006246;28;20182;-77
2023/03/24 02:26:31;;;;;;;12.83;5.93;;;;;;;;;;5028444;28;20222;-77
2023/03/24 02:29:02;;;;;;;9.90;5.03;;;;;;;;;;5026951;28;20417;-78
2023/03/24 02:31:35;;;;;;;7.00;3.70;;;;;;;;;;4993958;28;20254;-78
2023/03/24 02:34:10;;;;;;;9.37;4.80;;;;;;;;;;5011174;28;20333;-78
2023/03/24 02:37:01;;;;;;;9.10;5.93;;;;;;;;;;5003899;28;20188;-77
2023/03/24 02:39:30;;;;;;;5.17;3.83;;;;;;;;;;5007215;28;20690;-78
2023/03/24 02:42:05;;;;;;;4.33;2.77;;;;;;;;;;5006973;28;20189;-77
2023/03/24 02:44:39;;;;;;;3.40;2.67;;;;;;;;;;5006765;28;20193;-77
2023/03/24 02:47:11;;;;;;;3.00;2.40;;;;;;;;;;4994522;28;20293;-78
2023/03/24 02:49:51;;;;;;;2.70;2.50;;;;;;;;;;5006527;28;20214;-75
2023/03/24 02:52:26;;;;;;;2.97;2.60;;;;;;;;;;5008028;28;20246;-76
2023/03/24 02:54:53;;;;;;;2.63;2.40;;;;;;;;;;4990398;28;20701;-77
2023/03/24 02:57:21;;;;;;;2.73;2.50;;;;;;;;;;5011673;28;20781;-78
2023/03/24 03:00:12;;;;;;;3.00;2.27;;;;;;;;;;5024310;28;20199;-78
2023/03/24 03:03:13;;;;;;;3.67;2.40;;;;;;;;;;4976136;28;20243;-78
2023/03/24 03:06:07;;;;;;;3.90;2.20;;;;;;;;;;4994440;28;20264;-77
2023/03/24 03:08:34;;;;;;;2.43;2.23;;;;;;;;;;5004977;28;20223;-78
2023/03/24 03:11:01;;;;;;;3.05;2.40;;;;;;;;;;4992472;28;20917;-78
2023/03/24 03:13:36;;;;;;;2.50;2.30;;;;;;;;;;5024466;28;20563;-77
2023/03/24 03:16:08;;;;;;;3.47;2.50;;;;;;;;;;5008522;28;20247;-78
2023/03/24 03:18:34;;;;;;;3.40;2.53;;;;;;;;;;5022174;28;20267;-77
2023/03/24 03:21:04;;;;;;;2.83;2.60;;;;;;;;;;5025664;28;20233;-78
2023/03/24 03:23:38;;;;;;;2.63;2.40;;;;;;;;;;5007970;28;20218;-76
2023/03/24 03:26:08;;;;;;;3.30;2.30;;;;;;;;;;5024868;28;20204;-77
2023/03/24 03:28:37;;;;;;;3.33;2.33;;;;;;;;;;5027261;28;20472;-77
2023/03/24 03:31:06;;;;;;;3.20;2.50;;;;;;;;;;5026155;28;20206;-77
2023/03/24 03:33:36;;;;;;;2.73;2.30;;;;;;;;;;5009140;28;20297;-78
2023/03/24 03:36:20;;;;;;;3.40;2.60;;;;;;;;;;4991303;28;20189;-78
2023/03/24 03:39:00;;;;;;;4.90;2.60;;;;;;;;;;5006769;28;20195;-78
2023/03/24 03:41:26;;;;;;;2.73;2.50;;;;;;;;;;5008215;28;20202;-78
2023/03/24 03:43:53;;;;;;;4.30;2.50;;;;;;;;;;4991030;28;20713;-76
2023/03/24 03:46:19;;;;;;;3.50;2.63;;;;;;;;;;5016690;28;21724;-78
2023/03/24 03:48:47;;;;;;;3.37;2.83;;;;;;;;;;5016264;28;20824;-78
2023/03/24 03:51:14;;;;;;;3.40;2.83;;;;;;;;;;5004964;28;20677;-78
2023/03/24 03:53:58;;;;;;;3.57;2.47;;;;;;;;;;5020016;28;20263;-77
2023/03/24 03:56:27;;;;;;;2.80;2.50;;;;;;;;;;4992918;28;20184;-78
2023/03/24 03:59:10;;;;;;;2.80;2.60;;;;;;;;;;5010334;28;20211;-78
2023/03/24 04:01:40;;;;;;;3.47;2.80;;;;;;;;;;5009316;28;20245;-77
2023/03/24 04:04:36;;;;;;;4.43;2.77;;;;;;;;;;4998708;28;20199;-77
2023/03/24 04:07:41;;;;;;;2.90;2.60;;;;;;;;;;5007752;28;20182;-76
2023/03/24 04:10:29;;;;;;;4.00;3.27;;;;;;;;;;5007123;28;20288;-78
2023/03/24 04:13:10;;;;;;;3.57;2.87;;;;;;;;;;5001927;28;20224;-77
2023/03/24 04:16:25;;;;;;;2.80;2.60;;;;;;;;;;5015151;28;20642;-78
2023/03/24 04:19:24;;;;;;;6.30;2.97;;;;;;;;;;5021257;28;20210;-76
2023/03/24 04:22:08;;;;;;;3.50;3.10;;;;;;;;;;5007209;28;20237;-76
2023/03/24 04:24:41;;;;;;;4.47;3.20;;;;;;;;;;5009843;28;20249;-77
2023/03/24 04:27:29;;;;;;;3.50;3.00;;;;;;;;;;4973002;28;20252;-77
2023/03/24 04:30:09;;;;;;;3.20;2.90;;;;;;;;;;5023247;28;20207;-78
2023/03/24 04:32:41;;;;;;;3.50;3.20;;;;;;;;;;5017524;28;20642;-78
2023/03/24 04:35:11;;;;;;;3.50;3.07;;;;;;;;;;4991433;28;20207;-77
2023/03/24 04:38:05;;;;;;;3.60;2.80;;;;;;;;;;5016704;28;20505;-78
2023/03/24 04:40:35;;;;;;;4.03;3.00;;;;;;;;;;5006920;28;20262;-78
2023/03/24 04:43:03;;;;;;;4.50;3.03;;;;;;;;;;5004879;28;20275;-77
2023/03/24 04:45:32;;;;;;;3.50;3.20;;;;;;;;;;5022544;28;20190;-78
2023/03/24 04:48:25;;;;;;;3.60;2.90;;;;;;;;;;5007079;28;20632;-78
2023/03/24 04:50:55;;;;;;;3.20;2.90;;;;;;;;;;5008009;28;20214;-78
2023/03/24 04:53:23;;;;;;;3.70;3.17;;;;;;;;;;5007415;28;20333;-77
2023/03/24 04:55:49;;;;;;;3.50;3.20;;;;;;;;;;5009798;28;20186;-77
2023/03/24 04:58:21;;;;;;;3.70;3.40;;;;;;;;;;5002099;28;20199;-77
2023/03/24 05:00:47;;;;;;;4.50;3.17;;;;;;;;;;5005453;28;20619;-77
2023/03/24 05:03:15;;;;;;;4.33;3.40;;;;;;;;;;4972199;28;20273;-76
2023/03/24 05:05:47;;;;;;;4.23;3.20;;;;;;;;;;5002447;28;20195;-76
2023/03/24 05:08:13;;;;;;;4.53;3.53;;;;;;;;;;5006259;28;20186;-76
2023/03/24 05:10:40;;;;;;;4.00;3.60;;;;;;;;;;5021850;28;20190;-76
2023/03/24 05:13:07;;;;;;;4.63;3.77;;;;;;;;;;5021617;28;20202;-78
2023/03/24 05:15:43;;;;;;;3.97;3.43;;;;;;;;;;5003267;28;20193;-78
2023/03/24 05:18:22;;;;;;;3.80;3.40;;;;;;;;;;5011683;28;20184;-77
2023/03/24 05:20:48;;;;;;;4.17;3.13;;;;;;;;;;5023562;28;20194;-76
2023/03/24 05:23:19;;;;;;;4.33;3.50;;;;;;;;;;5005454;28;20181;-78
2023/03/24 05:25:47;;;;;;;4.00;3.60;;;;;;;;;;5008871;28;20240;-77
2023/03/24 05:28:14;;;;;;;5.03;4.20;;;;;;;;;;5005747;28;20205;-76
2023/03/24 05:30:41;;;;;;;5.73;3.93;;;;;;;;;;5008827;28;20585;-77
2023/03/24 05:33:16;;;;;;;4.73;3.77;;;;;;;;;;5010432;28;20310;-78
2023/03/24 05:35:43;;;;;;;4.33;3.93;;;;;;;;;;5014280;28;20186;-77
2023/03/24 05:38:09;;;;;;;4.67;4.00;;;;;;;;;;5010078;28;20183;-77
2023/03/24 05:40:36;;;;;;;4.47;4.07;;;;;;;;;;4999780;28;20251;-78
2023/03/24 05:43:11;;;;;;;4.87;4.37;;;;;;;;;;4992973;28;20195;-78
2023/03/24 05:45:40;;;;;;;7.10;4.67;;;;;;;;;;5009872;28;20187;-77
2023/03/24 05:48:08;;;;;;;4.57;4.13;;;;;;;;;;5026472;28;20183;-77
2023/03/24 05:50:53;;;;;;;6.40;4.70;;;;;;;;;;5010253;28;20559;-78
2023/03/24 05:53:20;;;;;;;5.77;4.60;;;;;;;;;;5009295;28;20206;-78
2023/03/24 05:56:10;;;;;;;7.30;5.00;;;;;;;;;;5014611;28;20177;-78
2023/03/24 05:58:59;;;;;;;5.93;5.30;;;;;;;;;;5008552;28;20270;-76
2023/03/24 06:01:47;;;;;;;5.70;4.67;;;;;;;;;;5028693;28;20179;-78
2023/03/24 06:04:21;;;;;;;6.30;5.00;;;;;;;;;;4990306;28;20215;-76
2023/03/24 06:06:47;;;;;;;5.77;4.70;;;;;;;;;;4996752;28;20550;-78
2023/03/24 06:09:18;;;;;;;5.00;4.60;;;;;;;;;;5010043;28;20202;-77
2023/03/24 06:11:44;;;;;;;6.60;4.83;;;;;;;;;;4992731;28;20298;-77
2023/03/24 06:14:11;;;;;;;5.37;4.87;;;;;;;;;;5012528;28;20557;-77
2023/03/24 06:16:51;;;;;;;5.97;5.17;;;;;;;;;;5008592;28;20214;-76
2023/03/24 06:19:23;;;;;;;6.10;5.30;;;;;;;;;;5011386;28;20442;-76
2023/03/24 06:21:59;;;;;;;6.20;5.00;;;;;;;;;;5008805;28;20197;-75
2023/03/24 06:24:29;;;;;;;5.60;4.90;;;;;;;;;;5006277;28;20216;-77
2023/03/24 06:27:02;;;;;;;7.90;5.17;;;;;;;;;;4991281;28;20187;-76
2023/03/24 06:29:30;;;;;;;6.60;6.00;;;;;;;;;;4987926;28;20206;-76
2023/03/24 06:31:57;;;;;;;5.90;5.20;;;;;;;;;;5024530;28;20854;-75
2023/03/24 06:34:28;;;;;;;5.20;4.70;;;;;;;;;;5003795;28;20700;-78
2023/03/24 06:37:10;;;;;;;4.97;4.47;;;;;;;;;;5007115;28;20178;-76
2023/03/24 06:39:37;;;;;;;5.00;4.50;;;;;;;;;;5012291;28;20888;-79
2023/03/24 06:42:04;;;;;;;5.50;4.60;;;;;;;;;;5007789;28;20181;-75
2023/03/24 06:44:30;;;;;;;5.10;4.60;;;;;;;;;;5008126;28;20630;-76
2023/03/24 06:46:56;;;;;;;5.37;4.50;;;;;;;;;;5025102;28;20182;-75
2023/03/24 06:49:22;;;;;;;5.33;4.83;;;;;;;;;;5015580;28;20257;-76
2023/03/24 06:51:49;;;;;;;5.00;4.50;;;;;;;;;;4994214;28;20209;-76
2023/03/24 06:54:16;;;;;;;6.87;4.67;;;;;;;;;;5015037;28;20672;-76
2023/03/24 06:56:43;;;;;;;5.63;4.90;;;;;;;;;;5032286;28;20251;-76
2023/03/24 06:59:09;;;;;;;6.10;5.03;;;;;;;;;;4987279;28;20847;-76
2023/03/24 07:01:37;;;;;;;6.03;5.10;;;;;;;;;;5015740;28;20751;-76
2023/03/24 07:04:10;;;;;;;7.87;5.80;;;;;;;;;;5033134;28;20244;-76
2023/03/24 07:06:49;;;;;;;9.07;5.60;;;;;;;;;;5010983;28;20293;-76
2023/03/24 07:09:18;;;;;;;7.87;6.07;;;;;;;;;;5031614;28;20298;-75
2023/03/24 07:11:45;;;;;;;7.00;6.33;;;;;;;;;;5030694;28;20178;-76
2023/03/24 07:14:11;;;;;;;9.20;6.70;;;;;;;;;;4999430;28;20277;-76
2023/03/24 07:16:38;;;;;;;7.37;6.57;;;;;;;;;;5001027;28;20641;-76
2023/03/24 07:19:22;;;;;;;8.33;7.10;;;;;;;;;;5010550;28;20206;-76
2023/03/24 07:21:56;;;;;;;8.00;7.10;;;;;;;;;;5029103;28;20182;-76
2023/03/24 07:24:36;;;;;;;7.90;7.10;;;;;;;;;;5004534;28;20734;-76
2023/03/24 07:27:25;;;;;;;8.47;7.30;;;;;;;;;;5014811;28;20769;-78
2023/03/24 07:29:51;;;;;;;9.80;8.43;;;;;;;;;;5008350;28;20646;-76
2023/03/24 07:32:22;;;;;;;8.37;6.97;;;;;;;;;;5012188;28;20266;-79
2023/03/24 07:34:48;;;;;;;9.70;5.97;;;;;;;;;;5001214;28;20252;-72
2023/03/24 07:37:16;;;;;;;6.60;5.90;;;;;;;;;;5012582;28;20209;-73
2023/03/24 07:39:42;;;;;;;7.27;6.53;;;;;;;;;;5007967;28;20670;-73
2023/03/24 07:42:09;;;;;;;9.37;6.87;;;;;;;;;;5001318;28;20277;-73
2023/03/24 07:45:13;;;;;;;7.47;6.30;;;;;;;;;;5020815;28;20186;-71
2023/03/24 07:47:42;;;;;;;8.07;6.73;;;;;;;;;;5007444;28;20258;-74
2023/03/24 07:50:09;;;;;;;7.23;6.50;;;;;;;;;;5005362;28;20257;-77
2023/03/24 07:52:37;;;;;;;7.03;6.33;;;;;;;;;;4969481;28;20734;-74
2023/03/24 07:55:05;;;;;;;8.43;6.73;;;;;;;;;;5003179;28;20677;-75
2023/03/24 07:57:48;;;;;;;7.37;6.67;;;;;;;;;;5023249;28;20182;-78
2023/03/24 08:00:16;;;;;;;6.90;6.20;;;;;;;;;;5024309;28;20234;-76
2023/03/24 08:02:51;;;;;;;7.40;5.97;;;;;;;;;;5012592;28;20182;-75
2023/03/24 08:05:36;;;;;;;9.37;6.10;;;;;;;;;;5020785;28;20190;-75
2023/03/24 08:08:15;;;;;;;6.87;6.27;;;;;;;;;;5004693;28;20190;-76
2023/03/24 08:10:41;;;;;;;7.33;6.60;;;;;;;;;;5008349;28;20752;-80
2023/03/24 08:13:07;;;;;;;8.13;7.10;;;;;;;;;;5022542;28;20207;-78
2023/03/24 08:15:34;;;;;;;7.30;6.60;;;;;;;;;;5009890;28;20293;-77
2023/03/24 08:18:00;;;;;;;7.37;6.63;;;;;;;;;;5024545;28;20789;-77
2023/03/24 08:20:28;;;;;;;7.60;6.80;;;;;;;;;;5021499;28;21028;-75
2023/03/24 08:22:55;;;;;;;7.57;6.77;;;;;;;;;;5021367;28;20186;-76
2023/03/24 08:25:23;;;;;;;7.80;6.97;;;;;;;;;;5023315;28;20610;-76
2023/03/24 08:27:49;;;;;;;7.90;6.93;;;;;;;;;;4985159;28;20544;-76
2023/03/24 08:30:17;;;;;;;8.33;6.30;;;;;;;;;;5016015;28;20212;-76
2023/03/24 08:32:54;;;;;;;6.40;5.80;;;;;;;;;;5024652;28;20783;-76
2023/03/24 08:35:22;;;;;;;6.60;5.90;;;;;;;;;;5020011;28;20186;-74
2023/03/24 08:37:48;;;;;;;6.93;5.80;;;;;;;;;;5023807;28;20183;-74
2023/03/24 08:40:18;;;;;;;6.20;5.60;;;;;;;;;;5019028;28;20306;-74
2023/03/24 08:42:50;;;;;;;6.23;5.50;;;;;;;;;;5023369;28;20206;-76
2023/03/24 08:45:19;;;;;;;6.47;5.60;;;;;;;;;;5032298;28;20190;-76
2023/03/24 08:47:46;;;;;;;6.00;5.40;;;;;;;;;;5020323;28;20187;-76
2023/03/24 08:50:13;;;;;;;6.50;4.63;;;;;;;;;;5030479;28;20283;-76
2023/03/24 08:52:40;;;;;;;5.40;4.90;;;;;;;;;;5027486;28;20205;-76
2023/03/24 08:55:08;;;;;;;4.80;3.83;;;;;;;;;;5025503;28;20211;-76
2023/03/24 08:57:35;;;;;;;4.20;3.80;;;;;;;;;;5021978;28;20650;-76
2023/03/24 09:00:07;;;;;;;4.00;3.50;;;;;;;;;;5021170;28;20216;-76
2023/03/24 09:02:34;;;;;;;3.50;2.87;;;;;;;;;;5025467;28;20179;-77
2023/03/24 09:05:01;;;;;;;3.53;3.23;;;;;;;;;;5025212;28;20205;-76
2023/03/24 09:07:27;;;;;;;3.73;3.20;;;;;;;;;;5018692;28;20665;-76
2023/03/24 09:09:53;;;;;;;3.87;3.37;;;;;;;;;;5020280;28;20288;-76
2023/03/24 09:12:20;;;;;;;3.50;3.20;;;;;;;;;;5020287;28;20186;-76
2023/03/24 09:14:49;;;;;;;3.40;3.10;;;;;;;;;;5021433;28;20229;-76
2023/03/24 09:17:15;;;;;;;4.40;3.37;;;;;;;;;;5020103;28;20183;-76
2023/03/24 09:19:42;;;;;;;4.00;3.60;;;;;;;;;;5016770;28;20254;-76
2023/03/24 09:22:08;;;;;;;3.60;3.30;;;;;;;;;;5021717;28;20197;-76
2023/03/24 09:24:34;;;;;;;4.03;3.30;;;;;;;;;;5021252;28;20178;-76
2023/03/24 09:27:00;;;;;;;4.13;3.10;;;;;;;;;;5020889;28;20185;-76
2023/03/24 09:29:26;;;;;;;3.43;3.13;;;;;;;;;;5022004;28;20264;-75
2023/03/24 09:31:53;;;;;;;4.10;3.00;;;;;;;;;;5015834;28;20195;-75
2023/03/24 09:34:20;;;;;;;3.20;2.90;;;;;;;;;;5026366;28;20210;-75
2023/03/24 09:36:47;;;;;;;3.50;3.20;;;;;;;;;;5023473;28;20284;-75
2023/03/24 09:39:13;;;;;;;3.60;3.20;;;;;;;;;;5000269;28;22023;-75
2023/03/24 09:41:40;;;;;;;3.43;3.13;;;;;;;;;;5003086;28;20196;-75
2023/03/24 09:44:13;;;;;;;3.97;3.10;;;;;;;;;;5015543;28;21092;-76
2023/03/24 09:46:42;;;;;;;4.30;3.20;;;;;;;;;;4986518;28;20667;-76
2023/03/24 09:49:11;;;;;;;4.33;3.20;;;;;;;;;;4982883;28;20210;-75
2023/03/24 09:51:40;;;;;;;3.77;3.30;;;;;;;;;;5001714;28;20186;-76
2023/03/24 09:54:21;;;;;;;3.53;2.87;;;;;;;;;;5018823;28;20289;-76
2023/03/24 09:56:48;;;;;;;4.17;3.30;;;;;;;;;;5018838;28;20554;-76
2023/03/24 09:59:19;;;;;;;3.87;3.30;;;;;;;;;;5020465;28;20202;-76
2023/03/24 10:01:45;;;;;;;3.40;2.80;;;;;;;;;;5022117;28;20187;-76
2023/03/24 10:04:19;;;;;;;6.03;3.47;;;;;;;;;;5019755;28;20175;-76
2023/03/24 10:06:47;;;;;;;3.20;2.90;;;;;;;;;;5019514;28;20197;-76
2023/03/24 10:09:33;;;;;;;3.40;3.10;;;;;;;;;;5020800;28;20205;-76
2023/03/24 10:12:18;;;;;;;3.00;2.70;;;;;;;;;;5004627;28;20198;-76
2023/03/24 10:15:03;;;;;;;3.67;3.10;;;;;;;;;;5003902;28;20221;-74
2023/03/24 10:17:48;;;;;;;3.47;3.17;;;;;;;;;;5020163;28;20180;-76
2023/03/24 10:20:17;;;;;;;3.63;3.23;;;;;;;;;;5022371;28;20213;-76
2023/03/24 10:22:47;;;;;;;5.07;3.30;;;;;;;;;;5023785;28;20187;-76
2023/03/24 10:25:18;;;;;;;5.07;3.03;;;;;;;;;;5024302;28;20190;-77
2023/03/24 10:27:57;;;;;;;3.93;3.30;;;;;;;;;;5027999;28;20882;-76
2023/03/24 10:30:25;;;;;;;4.20;3.20;;;;;;;;;;5006984;28;20217;-76
2023/03/24 10:32:53;;;;;;;4.43;3.17;;;;;;;;;;5031322;28;20680;-76
2023/03/24 10:35:29;;;;;;;3.60;3.27;;;;;;;;;;5032600;28;20183;-76
2023/03/24 10:37:57;;;;;;;4.83;3.20;;;;;;;;;;5024373;28;20197;-76
2023/03/24 10:40:26;;;;;;;4.23;3.70;;;;;;;;;;5020741;28;21312;-76
2023/03/24 10:42:52;;;;;;;4.33;3.53;;;;;;;;;;5025887;28;20174;-76
2023/03/24 10:45:24;;;;;;;6.13;3.70;;;;;;;;;;5022833;28;20183;-74
2023/03/24 10:47:50;;;;;;;3.90;3.50;;;;;;;;;;5021628;28;20211;-74
2023/03/24 10:50:16;;;;;;;6.93;3.50;;;;;;;;;;5022593;28;20227;-77
2023/03/24 10:52:46;;;;;;;5.60;3.43;;;;;;;;;;5027655;28;20206;-77
2023/03/24 10:55:17;;;;;;;3.77;2.90;;;;;;;;;;5023130;28;20565;-75
2023/03/24 10:57:45;;;;;;;3.43;3.10;;;;;;;;;;4997973;28;20237;-75
2023/03/24 11:00:18;;;;;;;3.40;3.10;;;;;;;;;;5020031;28;20309;-77
2023/03/24 11:02:44;;;;;;;3.10;2.80;;;;;;;;;;5007685;28;20179;-75
2023/03/24 11:05:15;;;;;;;3.23;2.73;;;;;;;;;;5023387;28;20222;-75
2023/03/24 11:07:43;;;;;;;3.10;2.80;;;;;;;;;;5006615;28;20206;-76
2023/03/24 11:10:09;;;;;;;4.30;3.50;;;;;;;;;;5017756;28;20239;-76
2023/03/24 11:12:56;;;;;;;3.53;2.93;;;;;;;;;;5017924;28;20187;-75
2023/03/24 11:15:27;;;;;;;2.10;1.90;;;;;;;;;;5004058;28;20213;-75
2023/03/24 11:17:59;;;;;;;3.63;1.47;;;;;;;;;;5018415;28;20257;-74
2023/03/24 11:20:28;;;;;;;1.87;1.10;;;;;;;;;;5022009;28;20218;-75
2023/03/24 11:22:58;;;;;;;1.30;1.03;;;;;;;;;;5019259;28;20178;-75
2023/03/24 11:25:25;;;;;;;1.20;1.10;;;;;;;;;;5009776;28;20558;-75
2023/03/24 11:27:53;;;;;;;1.60;1.10;;;;;;;;;;5022563;28;20183;-75
2023/03/24 11:30:19;;;;;;;1.33;1.00;;;;;;;;;;5020983;28;20214;-75
2023/03/24 11:32:47;;;;;;;1.77;1.10;;;;;;;;;;5019415;28;20191;-75
2023/03/24 11:35:16;;;;;;;1.60;0.90;;;;;;;;;;5009321;28;20219;-75
2023/03/24 11:37:42;;;;;;;1.50;1.00;;;;;;;;;;5024583;28;20887;-76
2023/03/24 11:40:11;;;;;;;1.57;1.00;;;;;;;;;;5022262;28;20276;-76
2023/03/24 11:42:42;;;;;;;1.17;1.00;;;;;;;;;;5020776;28;20186;-76
2023/03/24 11:45:20;;;;;;;3.03;0.97;;;;;;;;;;5020872;28;20210;-77
2023/03/24 11:47:46;;;;;;;2.37;1.27;;;;;;;;;;5001472;28;20559;-77
2023/03/24 11:50:14;;;;;;;3.30;1.17;;;;;;;;;;5026216;28;20221;-76
2023/03/24 11:52:53;;;;;;;1.20;0.97;;;;;;;;;;5020666;28;20187;-75
2023/03/24 11:55:46;;;;;;;1.83;1.17;;;;;;;;;;5024398;28;21534;-77
2023/03/24 11:58:24;;;;;;;1.73;1.27;;;;;;;;;;5019322;28;20690;-76
2023/03/24 12:00:54;;;;;;;2.27;1.20;;;;;;;;;;5015612;28;20206;-77
2023/03/24 12:03:49;;;;;;;2.57;1.60;;;;;;;;;;5019311;28;20673;-77
2023/03/24 12:06:25;;;;;;;1.67;1.10;;;;;;;;;;4993330;28;20203;-76
2023/03/24 12:09:00;;;;;;;1.93;1.40;;;;;;;;;;5022252;28;20210;-75
2023/03/24 12:11:45;;;;;;;1.60;1.10;;;;;;;;;;5021101;28;20182;-77
2023/03/24 12:14:12;;;;;;;3.57;2.17;;;;;;;;;;5023826;28;20244;-77
2023/03/24 12:16:41;;;;;;;2.30;2.10;;;;;;;;;;5008658;28;21001;-77
2023/03/24 12:19:18;;;;;;;22.00;19.90;;;;;;;;;;5017075;28;20235;-77
2023/03/24 12:22:00;;;;;;;5.07;4.50;;;;;;;;;;5020605;28;20210;-76
2023/03/24 12:24:29;;;;;;;3.10;2.80;;;;;;;;;;5021309;28;20275;-76
2023/03/24 12:26:58;;;;;;;2.80;1.70;;;;;;;;;;5012012;28;20190;-76
2023/03/24 12:29:28;;;;;;;2.37;1.40;;;;;;;;;;5018882;28;20253;-76
2023/03/24 12:32:00;;;;;;;1.97;1.30;;;;;;;;;;5005698;28;20186;-76
2023/03/24 12:34:48;;;;;;;1.83;1.30;;;;;;;;;;5021632;28;20697;-76
2023/03/24 12:37:33;;;;;;;1.20;0.97;;;;;;;;;;5023992;28;20202;-78
2023/03/24 12:40:12;;;;;;;2.03;1.20;;;;;;;;;;5027130;28;20207;-77
2023/03/24 12:42:47;;;;;;;1.77;1.00;;;;;;;;;;5025242;28;20202;-75
2023/03/24 12:45:13;;;;;;;2.23;1.50;;;;;;;;;;5020972;28;20190;-75
2023/03/24 12:47:51;;;;;;;3.03;1.20;;;;;;;;;;5022938;28;20187;-75
2023/03/24 12:50:36;;;;;;;1.20;1.00;;;;;;;;;;5022106;28;20226;-76
2023/03/24 12:53:12;;;;;;;1.97;1.23;;;;;;;;;;5018345;28;20195;-75
2023/03/24 12:55:47;;;;;;;2.33;1.57;;;;;;;;;;4987157;28;20719;-77
2023/03/24 12:58:16;;;;;;;2.53;1.43;;;;;;;;;;5017910;28;20193;-74
2023/03/24 13:00:52;;;;;;;3.53;1.67;;;;;;;;;;5017375;28;20203;-75
2023/03/24 13:03:22;;;;;;;6.57;2.33;;;;;;;;;;5020554;28;20190;-76
2023/03/24 13:05:53;;;;;;;2.50;1.80;;;;;;;;;;5026090;28;20186;-76
2023/03/24 13:08:28;;;;;;;4.20;1.93;;;;;;;;;;5009700;28;20486;-79
2023/03/24 13:10:58;;;;;;;1.63;1.50;;;;;;;;;;4999293;28;20289;-77
2023/03/24 13:13:31;;;;;;;1.87;1.40;;;;;;;;;;5019597;28;20718;-77
2023/03/24 13:16:00;;;;;;;2.33;1.50;;;;;;;;;;5021755;28;20247;-77
2023/03/24 13:18:32;;;;;;;3.43;2.00;;;;;;;;;;5010539;28;20327;-77
2023/03/24 13:21:06;;;;;;;4.30;1.60;;;;;;;;;;5004168;28;20207;-77
2023/03/24 13:23:39;;;;;;;1.40;1.30;;;;;;;;;;5024545;28;20179;-77
2023/03/24 13:26:20;;;;;;;2.63;2.07;;;;;;;;;;5023194;28;20246;-77
2023/03/24 13:28:52;;;;;;;2.13;1.60;;;;;;;;;;5022861;28;20253;-78
2023/03/24 13:31:20;;;;;;;1.73;1.50;;;;;;;;;;5018248;28;20182;-78
2023/03/24 13:33:47;;;;;;;1.60;1.50;;;;;;;;;;5021314;28;20306;-78
2023/03/24 13:36:36;;;;;;;3.00;2.70;;;;;;;;;;5018793;28;20681;-75
2023/03/24 13:39:07;;;;;;;1.90;1.80;;;;;;;;;;5015481;28;20324;-79
2023/03/24 13:41:36;;;;;;;2.60;1.93;;;;;;;;;;5023845;28;20178;-78
2023/03/24 13:44:07;;;;;;;2.67;1.77;;;;;;;;;;5021725;28;20705;-83
2023/03/24 13:46:36;;;;;;;3.10;2.30;;;;;;;;;;5023989;28;20171;-83
2023/03/24 13:49:04;;;;;;;2.63;2.40;;;;;;;;;;5025311;28;20285;-83
2023/03/24 13:51:32;;;;;;;2.00;1.80;;;;;;;;;;5023909;28;20179;-83
2023/03/24 13:54:15;;;;;;;3.10;2.10;;;;;;;;;;5014327;28;20325;-82
2023/03/24 13:56:46;;;;;;;4.10;2.40;;;;;;;;;;5011114;28;20277;-82
2023/03/24 13:59:12;;;;;;;3.20;2.13;;;;;;;;;;5024372;28;20613;-82
2023/03/24 14:01:44;;;;;;;3.30;2.00;;;;;;;;;;4988244;28;20193;-84
2023/03/24 14:04:13;;;;;;;3.63;2.10;;;;;;;;;;5006065;28;20177;-82
2023/03/24 14:06:48;;;;;;;2.73;2.17;;;;;;;;;;5006506;28;20195;-81
2023/03/24 14:09:20;;;;;;;2.43;1.60;;;;;;;;;;5011439;28;20209;-83
2023/03/24 14:11:49;;;;;;;3.60;1.70;;;;;;;;;;5029130;28;20191;-83
2023/03/24 14:14:15;;;;;;;3.53;1.90;;;;;;;;;;5008236;28;20215;-83
2023/03/24 14:16:51;;;;;;;3.27;1.90;;;;;;;;;;5025595;28;20199;-82
2023/03/24 14:19:24;;;;;;;3.67;1.70;;;;;;;;;;5009232;28;20635;-82
2023/03/24 14:21:52;;;;;;;3.07;1.60;;;;;;;;;;5024228;28;20187;-82
2023/03/24 14:24:36;;;;;;;4.70;1.80;;;;;;;;;;5010104;28;20324;-82
2023/03/24 14:27:22;;;;;;;2.83;1.50;;;;;;;;;;5026492;28;20190;-83
2023/03/24 14:29:52;;;;;;;2.63;1.70;;;;;;;;;;4986944;28;20596;-83
2023/03/24 14:32:21;;;;;;;2.00;1.57;;;;;;;;;;5022401;28;20182;-82
2023/03/24 14:34:52;;;;;;;2.83;1.50;;;;;;;;;;5029013;28;20221;-82
2023/03/24 14:37:18;;;;;;;3.33;1.60;;;;;;;;;;5019200;28;20183;-83
2023/03/24 14:39:49;;;;;;;4.43;1.90;;;;;;;;;;5022552;28;20202;-83
2023/03/24 14:42:33;;;;;;;2.37;1.80;;;;;;;;;;5025116;28;20187;-83
2023/03/24 14:45:03;;;;;;;5.30;1.63;;;;;;;;;;5009603;28;20186;-82
2023/03/24 14:47:31;;;;;;;3.23;2.00;;;;;;;;;;5025841;28;20190;-82
2023/03/24 14:49:58;;;;;;;7.47;2.20;;;;;;;;;;5029853;28;20339;-83
2023/03/24 14:52:28;;;;;;;2.23;1.60;;;;;;;;;;5026341;28;20620;-82
2023/03/24 14:54:59;;;;;;;2.47;1.67;;;;;;;;;;5028206;28;20214;-82
2023/03/24 14:57:26;;;;;;;4.40;1.70;;;;;;;;;;5010195;28;20189;-83
2023/03/24 15:00:13;;;;;;;2.97;1.67;;;;;;;;;;5010074;28;20222;-82
2023/03/24 15:02:44;;;;;;;3.13;1.63;;;;;;;;;;5018793;28;20206;-82
2023/03/24 15:05:13;;;;;;;5.03;1.70;;;;;;;;;;5007352;28;20416;-81
2023/03/24 15:07:40;;;;;;;3.47;1.60;;;;;;;;;;5006176;28;20219;-80
2023/03/24 15:10:07;;;;;;;2.03;1.60;;;;;;;;;;5022763;28;20249;-80
2023/03/24 15:12:33;;;;;;;4.13;1.60;;;;;;;;;;5021009;28;20222;-80